Roberts International Airport

Jump to: basic info | weather | frequencies | runways | comments

Related pages: nearby airports | nearby navaids | notams | map

Basic information (top)

Codes: ROB GLRB
Location: lon 6.233790, lat -10.362300, elev 31 ft / 9 m msl
Status: medium_airport
Scheduled airline service: yes
Links: Wikipedia Mobile

Weather (top)

Current conditions (rec'd 2014/11/29 07:00Z):

GLRB 290700Z 000000KT 9999 BKN012 FEW023 CB 25/24 Q1011 RMK CB-SW/W

Airport forecast (rec'd 2014/11/28 00:54Z):

TAF TAF GLRB 282200Z 2900/3006 17006KT 9000 SCT014 FEW023CB 
      TEMPO 2901/2905 VRB03KT 8000 
      BECMG 2906/2908 05004KT 9999 SCT015 FEW024CB BKN100

Frequencies (top)

Verify before use: may be inaccurate or out of date.

A/G: 345.2 MHz (A/G VOICE RDO)
APP: 124.5 MHz (ROBERTS APP)
GND: 121.9 MHz (GND)
TWR: 118.3 MHz (ROBERTS TWR)

Runways (top)

04/22: 11,000 x 150 ft (3,353 x 46 m) — paved — lighted — threshold 22 displaced 1,200 ft (366 m)

Latest comments (top)

No comments yet for Roberts International Airport

More... (top)

See also NOTAMs and nearby airports and navaids, or visit the Roberts International Airport page at the main OurAirports website..